Time;durP1;ratioP1;P1;durP2;ratioP2;P2;SDS_P1;SDS_P2;PMS_P1;PMS_P2;Temp;Humidity;BMP_temperature;BMP_pressure;BME280_temperature;BME280_humidity;BME280_pressure;Samples;Min_cycle;Max_cycle;Signal;HPM_P1;HPM_P2
2023/07/21 00:01:10;;;;;;;7.22;6.30;;;;;;;13.70;95.42;101111.69;4966812;28;20039;-69
2023/07/21 00:03:38;;;;;;;7.30;6.55;;;;;;;13.66;95.81;101105.66;4970181;28;20035;-69
2023/07/21 00:06:09;;;;;;;7.10;6.50;;;;;;;13.62;95.91;101102.25;4965967;28;20154;-69
2023/07/21 00:08:38;;;;;;;7.88;7.18;;;;;;;13.60;95.98;101111.19;4965922;28;20503;-69
2023/07/21 00:11:05;;;;;;;8.63;7.75;;;;;;;13.57;96.00;101114.84;4968889;28;20039;-69
2023/07/21 00:13:36;;;;;;;8.43;7.13;;;;;;;13.56;96.29;101110.47;4967455;28;20046;-69
2023/07/21 00:16:04;;;;;;;9.13;7.32;;;;;;;13.56;96.10;101110.47;4967538;28;20399;-68
2023/07/21 00:18:33;;;;;;;10.35;7.88;;;;;;;13.55;96.39;101124.63;4967181;28;20047;-69
2023/07/21 00:21:01;;;;;;;8.60;7.80;;;;;;;13.54;96.30;101114.06;4966670;28;20290;-69
2023/07/21 00:23:31;;;;;;;8.32;7.47;;;;;;;13.53;96.43;101115.00;4965504;28;20467;-69
2023/07/21 00:26:00;;;;;;;7.85;7.03;;;;;;;13.52;96.62;101116.78;4961851;28;20042;-68
2023/07/21 00:28:28;;;;;;;8.02;7.30;;;;;;;13.51;96.48;101107.13;4967247;28;20042;-69
2023/07/21 00:30:55;;;;;;;7.97;7.28;;;;;;;13.49;96.59;101104.53;4950219;28;20042;-69
2023/07/21 00:33:25;;;;;;;8.38;7.45;;;;;;;13.51;96.72;101110.63;4968831;28;20148;-69
2023/07/21 00:35:52;;;;;;;10.52;7.97;;;;;;;13.54;96.75;101112.31;4982098;28;20403;-69
2023/07/21 00:38:21;;;;;;;8.30;7.50;;;;;;;13.56;97.07;101097.22;4997717;28;20078;-69
2023/07/21 00:40:49;;;;;;;8.93;8.13;;;;;;;13.57;96.99;101096.31;4964990;28;20050;-69
2023/07/21 00:43:18;;;;;;;9.38;8.57;;;;;;;13.60;97.07;101097.97;4967229;28;20057;-69
2023/07/21 00:45:46;;;;;;;9.88;8.98;;;;;;;13.60;97.02;101106.75;4964704;28;20042;-68
2023/07/21 00:48:17;;;;;;;10.48;9.40;;;;;;;13.62;97.09;101099.63;4965753;28;20130;-69
2023/07/21 00:50:51;;;;;;;10.85;9.85;;;;;;;13.68;97.24;101095.88;4964668;28;20058;-68
2023/07/21 00:53:20;;;;;;;14.63;13.13;;;;;;;13.70;97.44;101091.38;4964720;28;20054;-68
2023/07/21 00:55:47;;;;;;;12.70;11.52;;;;;;;13.75;97.70;101089.41;4978931;28;20375;-69
2023/07/21 00:58:18;;;;;;;12.88;11.48;;;;;;;13.79;97.80;101090.13;4949369;28;20167;-69
2023/07/21 01:00:48;;;;;;;12.57;11.13;;;;;;;13.82;97.97;101085.59;4981735;28;20057;-69
2023/07/21 01:03:18;;;;;;;12.18;11.07;;;;;;;13.86;97.93;101091.63;4981410;28;20043;-69
2023/07/21 01:05:52;;;;;;;14.90;13.50;;;;;;;13.86;97.86;101082.81;4964938;28;20051;-69
2023/07/21 01:08:21;;;;;;;14.53;13.13;;;;;;;13.85;97.87;101083.72;4967271;28;20121;-69
2023/07/21 01:10:50;;;;;;;15.48;14.07;;;;;;;13.82;97.75;101082.94;4977749;28;20043;-69
2023/07/21 01:13:20;;;;;;;13.75;12.45;;;;;;;13.81;97.98;101073.28;4983269;28;20092;-69
2023/07/21 01:15:53;;;;;;;13.20;12.02;;;;;;;13.78;97.93;101067.22;4976688;28;20351;-69
2023/07/21 01:18:21;;;;;;;12.73;11.63;;;;;;;13.78;98.03;101068.09;4995991;28;20133;-68
2023/07/21 01:20:49;;;;;;;13.35;11.75;;;;;;;13.78;97.91;101064.59;4980681;28;20403;-69
2023/07/21 01:23:19;;;;;;;12.95;11.70;;;;;;;13.77;97.95;101058.41;4965963;28;20058;-69
2023/07/21 01:25:48;;;;;;;12.55;11.38;;;;;;;13.75;97.98;101062.03;4961352;28;20047;-69
2023/07/21 01:28:17;;;;;;;12.50;11.40;;;;;;;13.71;97.76;101061.31;4964003;28;20474;-69
2023/07/21 01:30:48;;;;;;;12.68;11.52;;;;;;;13.67;97.43;101062.34;4996394;28;20125;-70
2023/07/21 01:33:20;;;;;;;12.15;11.05;;;;;;;13.63;97.67;101055.47;4964745;28;20129;-69
2023/07/21 01:35:49;;;;;;;11.35;10.35;;;;;;;13.60;97.52;101058.22;4980118;28;20510;-70
2023/07/21 01:38:19;;;;;;;12.27;11.18;;;;;;;13.57;97.45;101053.91;4965265;28;20057;-69
2023/07/21 01:40:47;;;;;;;12.23;11.13;;;;;;;13.54;97.56;101043.44;4975594;28;20047;-70
2023/07/21 01:43:15;;;;;;;11.65;10.60;;;;;;;13.51;97.44;101044.44;4996707;28;20555;-69
2023/07/21 01:45:43;;;;;;;12.38;10.82;;;;;;;13.46;97.62;101041.06;4978746;28;20066;-69
2023/07/21 01:48:10;;;;;;;11.30;10.05;;;;;;;13.44;97.56;101048.22;4965688;28;20126;-69
2023/07/21 01:50:41;;;;;;;12.48;11.02;;;;;;;13.40;97.75;101038.69;4962632;28;20249;-69
2023/07/21 01:53:22;;;;;;;13.93;12.63;;;;;;;13.36;97.92;101039.69;4955342;28;20078;-70
2023/07/21 01:56:02;;;;;;;13.82;12.63;;;;;;;13.29;97.79;101033.75;4964463;28;20526;-70
2023/07/21 01:58:34;;;;;;;14.00;12.70;;;;;;;13.27;97.81;101032.09;4966648;28;20047;-69
2023/07/21 02:01:05;;;;;;;14.10;12.63;;;;;;;13.21;97.74;101030.53;4996225;28;20567;-69
2023/07/21 02:03:34;;;;;;;13.10;11.90;;;;;;;13.14;97.73;101026.41;4964997;28;20050;-69
2023/07/21 02:06:15;;;;;;;14.52;13.13;;;;;;;13.08;97.85;101027.50;4965834;28;20050;-69
2023/07/21 02:08:43;;;;;;;14.02;12.73;;;;;;;13.03;97.89;101037.38;4966138;28;20043;-69
2023/07/21 02:11:11;;;;;;;14.73;13.32;;;;;;;13.00;97.88;101032.22;4963811;28;20050;-69
2023/07/21 02:13:54;;;;;;;14.80;13.40;;;;;;;12.96;97.79;101038.53;4981713;28;20058;-69
2023/07/21 02:16:23;;;;;;;15.40;13.80;;;;;;;12.93;97.78;101031.59;4996984;28;20062;-69
2023/07/21 02:18:50;;;;;;;14.52;13.23;;;;;;;12.89;97.86;101030.84;4966902;28;20043;-69
2023/07/21 02:21:17;;;;;;;14.23;12.68;;;;;;;12.88;97.95;101030.88;4978961;28;20058;-69
2023/07/21 02:23:45;;;;;;;14.65;13.20;;;;;;;12.87;98.16;101035.34;4965908;28;20038;-69
2023/07/21 02:26:14;;;;;;;14.57;13.13;;;;;;;12.85;98.05;101033.66;4964101;28;20043;-69
2023/07/21 02:28:43;;;;;;;14.23;12.93;;;;;;;12.81;98.30;101021.47;4962840;28;20043;-69
2023/07/21 02:31:11;;;;;;;13.98;12.50;;;;;;;12.79;98.26;101024.16;4973959;28;20041;-70
2023/07/21 02:33:38;;;;;;;13.02;11.73;;;;;;;12.78;98.24;101024.22;4970494;28;20093;-70
2023/07/21 02:36:06;;;;;;;12.70;11.50;;;;;;;12.75;98.22;101030.47;4964594;28;20101;-69
2023/07/21 02:38:33;;;;;;;13.35;12.05;;;;;;;12.72;98.23;101020.88;4962916;28;20054;-69
2023/07/21 02:41:05;;;;;;;13.25;12.02;;;;;;;12.71;98.36;101031.53;4964964;28;20105;-69
2023/07/21 02:43:33;;;;;;;12.27;11.18;;;;;;;12.66;98.16;101021.13;4964681;28;20113;-69
2023/07/21 02:46:01;;;;;;;12.82;11.60;;;;;;;12.66;98.27;101030.81;4978232;28;20042;-69
2023/07/21 02:48:31;;;;;;;13.18;11.93;;;;;;;12.63;98.12;101020.34;4956600;28;20444;-69
2023/07/21 02:51:00;;;;;;;14.45;13.15;;;;;;;12.58;98.25;101015.22;4952016;28;20054;-70
2023/07/21 02:53:31;;;;;;;14.60;13.20;;;;;;;12.55;98.30;101015.34;4977034;28;20047;-71
2023/07/21 02:56:05;;;;;;;14.63;13.23;;;;;;;12.52;98.32;101018.09;4982066;28;20070;-69
2023/07/21 02:58:53;;;;;;;14.65;13.25;;;;;;;12.49;98.56;101019.06;4999195;28;20499;-69
2023/07/21 03:01:20;;;;;;;15.55;14.05;;;;;;;12.47;98.63;101012.09;4966112;28;20077;-69
2023/07/21 03:03:48;;;;;;;14.60;13.20;;;;;;;12.47;98.52;101020.03;4998193;28;20351;-70
2023/07/21 03:06:16;;;;;;;16.38;14.68;;;;;;;12.45;98.67;101006.88;4982970;28;20057;-70
2023/07/21 03:08:43;;;;;;;15.02;13.63;;;;;;;12.41;98.50;101014.03;4982943;28;20043;-70
2023/07/21 03:11:13;;;;;;;15.32;13.93;;;;;;;12.42;98.53;101013.13;4981232;28;20138;-69
2023/07/21 03:13:55;;;;;;;15.68;14.07;;;;;;;12.41;98.60;101016.69;4982868;28;20102;-70
2023/07/21 03:16:23;;;;;;;15.57;13.93;;;;;;;12.41;98.85;101005.25;4958079;28;20047;-70
2023/07/21 03:18:54;;;;;;;15.77;14.23;;;;;;;12.41;98.92;101003.47;4968059;28;20066;-70
2023/07/21 03:21:21;;;;;;;15.38;13.90;;;;;;;12.41;98.92;101002.63;4966179;28;20058;-70
2023/07/21 03:23:49;;;;;;;15.88;14.32;;;;;;;12.40;98.84;101001.75;4981051;28;20457;-70
2023/07/21 03:26:25;;;;;;;15.63;13.25;;;;;;;12.41;98.89;101002.63;4980830;28;20371;-70
2023/07/21 03:28:57;;;;;;;15.00;13.50;;;;;;;12.41;98.94;101002.63;4998861;28;20046;-70
2023/07/21 03:31:27;;;;;;;15.50;14.00;;;;;;;12.42;98.94;101012.25;4981447;28;20070;-70
2023/07/21 03:34:00;;;;;;;17.60;15.90;;;;;;;12.44;99.17;101015.72;4966323;28;20042;-70
2023/07/21 03:36:30;;;;;;;17.73;15.90;;;;;;;12.47;99.22;101012.97;4998299;28;20443;-70
2023/07/21 03:39:00;;;;;;;17.95;16.15;;;;;;;12.50;99.38;101004.06;4967801;28;20073;-70
2023/07/21 03:41:27;;;;;;;20.27;16.67;;;;;;;12.51;99.23;101003.13;4965684;28;20505;-69
2023/07/21 03:43:55;;;;;;;19.23;17.40;;;;;;;12.53;99.25;101006.59;4982642;28;20046;-69
2023/07/21 03:46:22;;;;;;;21.90;19.60;;;;;;;12.55;99.58;101007.41;4981784;28;20035;-69
2023/07/21 03:49:11;;;;;;;22.58;20.27;;;;;;;12.61;99.77;101003.69;4962433;28;20043;-69
2023/07/21 03:51:42;;;;;;;22.58;19.75;;;;;;;12.64;99.83;101007.06;4981017;28;20066;-69
2023/07/21 03:54:14;;;;;;;22.58;20.40;;;;;;;12.69;99.70;101010.41;4980047;28;20043;-69
2023/07/21 03:56:41;;;;;;;23.45;20.98;;;;;;;12.73;100.00;101003.22;4979001;28;20038;-69
2023/07/21 03:59:09;;;;;;;23.40;20.90;;;;;;;12.75;100.00;101001.38;4965926;28;20053;-69
2023/07/21 04:01:37;;;;;;;23.17;20.85;;;;;;;12.80;100.00;100999.44;4981433;28;20043;-69
2023/07/21 04:04:04;;;;;;;21.92;19.63;;;;;;;12.82;100.00;101002.03;4966671;28;20051;-69
2023/07/21 04:06:31;;;;;;;20.77;18.67;;;;;;;12.83;100.00;101001.09;4982402;28;20052;-69
2023/07/21 04:09:00;;;;;;;23.30;18.77;;;;;;;12.84;99.74;101001.03;4998288;28;20427;-71
2023/07/21 04:11:27;;;;;;;20.58;18.58;;;;;;;12.86;99.63;100990.41;4972332;28;20038;-71
2023/07/21 04:13:56;;;;;;;20.17;18.27;;;;;;;12.87;99.58;101000.94;4966207;28;20435;-69
2023/07/21 04:16:23;;;;;;;20.40;18.35;;;;;;;12.86;99.36;100998.34;4998188;28;20510;-71
2023/07/21 04:18:51;;;;;;;19.35;17.20;;;;;;;12.86;99.01;101001.00;4967003;28;20247;-70
2023/07/21 04:21:18;;;;;;;19.92;18.02;;;;;;;12.85;99.07;100991.34;5000943;28;20035;-69
2023/07/21 04:23:45;;;;;;;23.45;21.15;;;;;;;12.89;99.11;100998.22;4963233;28;20054;-70
2023/07/21 04:26:15;;;;;;;20.85;18.73;;;;;;;12.94;99.22;100987.47;4979037;28;20050;-70
2023/07/21 04:28:44;;;;;;;20.10;18.15;;;;;;;12.97;98.83;100987.34;4995493;28;20077;-70
2023/07/21 04:31:11;;;;;;;20.17;17.95;;;;;;;13.00;98.68;100990.75;4997380;28;20058;-71
2023/07/21 04:33:59;;;;;;;21.88;17.48;;;;;;;13.04;98.62;100988.84;4965238;28;20103;-71
2023/07/21 04:36:27;;;;;;;20.52;18.55;;;;;;;13.10;98.64;100985.09;4964983;28;20829;-70
2023/07/21 04:38:57;;;;;;;21.85;19.65;;;;;;;13.16;98.32;100990.16;4963189;28;20045;-71
2023/07/21 04:41:25;;;;;;;22.15;19.85;;;;;;;13.16;98.22;100984.88;4976267;28;20329;-70
2023/07/21 04:43:53;;;;;;;21.75;19.70;;;;;;;13.19;98.46;100990.03;4978700;28;20427;-71
2023/07/21 04:46:20;;;;;;;20.80;18.73;;;;;;;13.28;98.14;100992.31;4965754;28;20125;-71
2023/07/21 04:48:49;;;;;;;21.88;19.25;;;;;;;13.33;98.25;100987.72;4964376;28;20526;-71
2023/07/21 04:51:25;;;;;;;22.42;20.08;;;;;;;13.39;97.73;100986.66;4964801;28;20039;-71
2023/07/21 04:54:12;;;;;;;24.63;21.13;;;;;;;13.47;97.63;100992.50;4973703;28;20056;-71
2023/07/21 04:56:39;;;;;;;22.48;20.15;;;;;;;13.61;97.31;100986.63;4961616;28;20078;-70
2023/07/21 04:59:08;;;;;;;22.92;20.45;;;;;;;13.76;97.10;100985.13;4979973;28;20050;-70
2023/07/21 05:01:35;;;;;;;22.83;20.30;;;;;;;13.95;96.84;100985.25;4975962;28;20035;-71
2023/07/21 05:04:02;;;;;;;21.77;19.20;;;;;;;14.36;95.53;100981.72;4967517;28;20562;-71
2023/07/21 05:06:30;;;;;;;19.40;17.52;;;;;;;15.13;92.79;100979.22;4964683;28;20038;-71
2023/07/21 05:08:57;;;;;;;19.40;17.52;;;;;;;15.12;92.00;100988.94;4981830;28;20038;-71
2023/07/21 05:11:25;;;;;;;19.42;17.48;;;;;;;15.01;92.07;100983.28;4997870;28;20397;-71
2023/07/21 05:13:52;;;;;;;19.10;17.30;;;;;;;14.93;92.29;100982.78;4997575;28;20522;-71
2023/07/21 05:16:26;;;;;;;20.03;17.97;;;;;;;15.00;92.52;100970.97;4967853;28;20043;-71
2023/07/21 05:19:23;;;;;;;20.90;18.80;;;;;;;15.42;91.49;100975.13;4960711;28;20410;-71
2023/07/21 05:22:16;;;;;;;20.17;18.13;;;;;;;15.71;90.39;100978.19;4963921;28;20137;-71
2023/07/21 05:25:09;;;;;;;18.63;16.92;;;;;;;17.22;86.22;100971.22;4958620;28;20046;-71
2023/07/21 05:27:38;;;;;;;19.50;17.55;;;;;;;18.35;81.84;100971.81;4993744;28;20380;-71
2023/07/21 05:30:11;;;;;;;17.95;15.93;;;;;;;18.00;82.03;100973.00;4958896;28;20158;-71
2023/07/21 05:32:44;;;;;;;19.00;15.45;;;;;;;17.80;82.79;100974.13;4964108;28;20492;-72
2023/07/21 05:35:16;;;;;;;18.00;15.25;;;;;;;18.48;81.69;100967.44;4977654;28;20090;-70
2023/07/21 05:37:48;;;;;;;16.70;15.00;;;;;;;19.45;77.02;100980.97;4964680;28;20579;-70
2023/07/21 05:40:15;;;;;;;19.52;15.20;;;;;;;20.44;73.04;100971.69;4979253;28;20392;-72
2023/07/21 05:42:42;;;;;;;21.17;16.13;;;;;;;20.93;69.62;100962.88;4966069;28;20415;-70
2023/07/21 05:45:10;;;;;;;17.40;14.60;;;;;;;21.60;67.24;100966.06;4992749;28;20066;-71
2023/07/21 05:47:40;;;;;;;17.38;14.25;;;;;;;22.27;65.49;100961.88;4963192;28;20062;-71
2023/07/21 05:50:09;;;;;;;15.18;13.60;;;;;;;22.77;63.55;100963.38;4962728;28;20382;-71
2023/07/21 05:52:40;;;;;;;16.85;15.15;;;;;;;23.57;60.18;100959.56;4962902;28;20059;-71
2023/07/21 05:55:16;;;;;;;15.73;13.57;;;;;;;24.02;58.29;100969.28;4964197;28;20105;-71
2023/07/21 05:57:43;;;;;;;15.07;13.48;;;;;;;24.45;57.69;100974.63;4966921;28;20495;-71
2023/07/21 06:00:14;;;;;;;19.63;15.15;;;;;;;24.86;55.83;100972.84;4965217;28;20437;-71
2023/07/21 06:02:49;;;;;;;14.27;12.75;;;;;;;24.48;56.44;100975.22;4978779;28;20046;-69
2023/07/21 06:05:17;;;;;;;15.50;13.93;;;;;;;23.92;56.76;100973.69;4964222;28;20130;-72
2023/07/21 06:08:10;;;;;;;15.50;13.95;;;;;;;23.78;57.47;100972.19;4959151;28;20062;-71
2023/07/21 06:10:57;;;;;;;14.90;13.40;;;;;;;24.15;56.27;100971.78;4980979;28;20447;-71
2023/07/21 06:13:48;;;;;;;16.48;13.80;;;;;;;24.17;56.56;100974.34;4960759;28;20462;-71
2023/07/21 06:16:32;;;;;;;19.90;13.80;;;;;;;22.99;58.33;100972.41;4964237;28;20039;-71
2023/07/21 06:19:00;;;;;;;15.52;13.95;;;;;;;21.94;61.36;100973.38;4976783;28;20051;-71
2023/07/21 06:21:27;;;;;;;26.77;15.27;;;;;;;20.93;63.82;100978.94;4965462;28;20057;-71
2023/07/21 06:23:55;;;;;;;20.67;15.45;;;;;;;20.15;66.64;100983.44;4966506;28;20148;-71
2023/07/21 06:26:22;;;;;;;18.42;16.42;;;;;;;19.54;68.92;100980.34;4964199;28;20582;-71
2023/07/21 06:28:51;;;;;;;23.48;17.98;;;;;;;19.12;70.96;100979.56;4981457;28;20059;-71
2023/07/21 06:31:21;;;;;;;23.17;18.05;;;;;;;18.80;72.79;100977.06;4983883;28;20051;-71
2023/07/21 06:34:06;;;;;;;21.48;19.42;;;;;;;18.57;74.46;100980.22;4965090;28;20779;-71
2023/07/21 06:36:33;;;;;;;23.02;20.58;;;;;;;18.41;74.85;100976.78;4969700;28;20051;-71
2023/07/21 06:39:11;;;;;;;23.92;21.23;;;;;;;18.28;76.56;100979.34;4966636;28;20483;-71
2023/07/21 06:41:59;;;;;;;30.08;20.33;;;;;;;18.22;77.20;100980.56;4966542;28;20854;-71
2023/07/21 06:44:36;;;;;;;23.48;21.10;;;;;;;18.16;77.85;100970.28;4964736;28;20118;-71
2023/07/21 06:47:21;;;;;;;26.75;20.23;;;;;;;18.20;78.31;100969.13;4961757;28;20054;-71
2023/07/21 06:50:15;;;;;;;28.65;22.27;;;;;;;18.27;78.11;100973.13;4957919;28;20058;-71
2023/07/21 06:52:50;;;;;;;26.55;23.70;;;;;;;18.29;78.41;100976.56;4967595;28;20055;-72
2023/07/21 06:55:21;;;;;;;28.60;22.30;;;;;;;18.37;78.57;100962.75;4963880;28;20381;-71
2023/07/21 06:57:49;;;;;;;27.83;23.55;;;;;;;18.45;78.78;100967.63;4970077;28;20477;-71
2023/07/21 07:00:16;;;;;;;26.05;23.45;;;;;;;18.57;78.13;100969.53;4971838;28;20121;-71
2023/07/21 07:02:48;;;;;;;27.60;23.02;;;;;;;18.67;78.48;100968.97;4964288;28;20194;-72
2023/07/21 07:05:17;;;;;;;27.70;21.95;;;;;;;18.82;78.16;100962.66;4967710;28;20047;-73
2023/07/21 07:07:44;;;;;;;27.95;22.85;;;;;;;18.96;77.99;100966.31;4966870;28;20097;-73
2023/07/21 07:10:13;;;;;;;25.75;22.80;;;;;;;19.06;78.01;100962.09;4965880;28;20399;-73
2023/07/21 07:12:40;;;;;;;26.38;22.98;;;;;;;19.29;77.25;100962.41;4968035;28;20039;-73
2023/07/21 07:15:10;;;;;;;24.30;21.80;;;;;;;19.46;76.88;100967.53;4969353;28;20046;-74
2023/07/21 07:17:37;;;;;;;25.95;23.17;;;;;;;19.58;75.66;100965.00;4969377;28;20509;-73
2023/07/21 07:20:09;;;;;;;24.05;20.65;;;;;;;19.64;76.47;100964.56;4967496;28;20058;-73
2023/07/21 07:22:38;;;;;;;22.80;20.55;;;;;;;19.82;76.11;100957.16;4968757;28;20499;-72
2023/07/21 07:25:05;;;;;;;23.70;21.30;;;;;;;19.96;74.08;100962.44;4969781;28;20423;-72
2023/07/21 07:27:34;;;;;;;22.90;19.75;;;;;;;20.00;73.94;100963.06;4967138;28;20045;-72
2023/07/21 07:30:01;;;;;;;22.48;20.05;;;;;;;20.06;73.62;100967.16;4966957;28;20344;-72
2023/07/21 07:32:29;;;;;;;21.00;18.70;;;;;;;20.07;74.40;100963.50;4967901;28;20046;-72
2023/07/21 07:34:56;;;;;;;20.75;18.55;;;;;;;20.07;72.79;100960.84;4965983;28;20298;-72
2023/07/21 07:37:24;;;;;;;20.63;18.50;;;;;;;20.06;73.75;100956.44;4968649;28;20054;-72
2023/07/21 07:39:51;;;;;;;20.77;18.40;;;;;;;20.12;73.83;100962.22;4968768;28;20038;-72
2023/07/21 07:42:18;;;;;;;19.75;17.27;;;;;;;20.24;74.44;100965.03;4968163;28;20459;-72
2023/07/21 07:44:45;;;;;;;20.88;18.67;;;;;;;20.44;74.11;100961.81;4965577;28;20062;-72
2023/07/21 07:47:13;;;;;;;19.83;17.83;;;;;;;20.60;71.90;100964.28;4966870;28;20039;-72
2023/07/21 07:49:40;;;;;;;20.42;15.48;;;;;;;20.66;68.59;100962.09;4968353;28;20053;-72
2023/07/21 07:52:08;;;;;;;17.33;15.60;;;;;;;20.68;68.73;100963.75;4967953;28;20330;-71
2023/07/21 07:54:36;;;;;;;16.83;15.13;;;;;;;20.78;66.45;100967.50;4968481;28;20039;-72
2023/07/21 07:57:03;;;;;;;15.98;13.80;;;;;;;20.83;64.58;100968.97;4967692;28;20047;-72
2023/07/21 07:59:30;;;;;;;13.10;11.70;;;;;;;20.84;63.79;100965.34;4965852;28;20047;-72
2023/07/21 08:01:58;;;;;;;17.33;13.85;;;;;;;20.89;65.84;100964.03;4968491;28;20464;-72
2023/07/21 08:04:26;;;;;;;17.55;14.65;;;;;;;21.01;66.66;100959.59;4967306;28;20149;-72
2023/07/21 08:06:53;;;;;;;18.33;16.33;;;;;;;21.19;67.81;100964.63;4967350;28;20053;-73
2023/07/21 08:09:22;;;;;;;16.35;14.55;;;;;;;21.30;67.30;100956.63;4967307;28;20376;-73
2023/07/21 08:11:49;;;;;;;13.25;11.95;;;;;;;21.45;64.83;100960.00;4969037;28;20503;-73
2023/07/21 08:14:16;;;;;;;12.65;11.45;;;;;;;21.54;63.65;100953.94;4967877;28;20054;-73
2023/07/21 08:16:43;;;;;;;12.88;11.27;;;;;;;21.58;64.54;100957.25;4967998;28;20121;-73
2023/07/21 08:19:10;;;;;;;13.40;10.27;;;;;;;21.61;62.67;100962.44;4967125;28;20611;-73
2023/07/21 08:21:37;;;;;;;16.80;10.85;;;;;;;21.65;62.03;100963.06;4966490;28;20070;-74
2023/07/21 08:24:05;;;;;;;14.30;10.45;;;;;;;21.57;59.89;100958.22;4968150;28;20039;-73
2023/07/21 08:26:32;;;;;;;16.88;9.90;;;;;;;21.54;61.36;100962.00;4968481;28;20665;-73
2023/07/21 08:28:59;;;;;;;11.18;9.15;;;;;;;21.62;62.95;100964.09;4978657;28;20503;-74
2023/07/21 08:31:27;;;;;;;14.02;10.52;;;;;;;21.72;61.10;100969.66;4967638;28;20054;-73
2023/07/21 08:33:55;;;;;;;11.73;8.77;;;;;;;21.78;60.78;100968.34;4962797;28;20085;-71
2023/07/21 08:36:22;;;;;;;13.80;8.13;;;;;;;21.81;58.55;100966.28;4965168;28;20392;-71
2023/07/21 08:39:02;;;;;;;13.27;8.65;;;;;;;21.82;58.69;100975.19;4963880;28;20043;-71
2023/07/21 08:41:34;;;;;;;11.32;9.18;;;;;;;21.78;57.73;100965.66;4966382;28;20101;-71
2023/07/21 08:44:04;;;;;;;12.95;9.32;;;;;;;21.76;56.92;100964.91;4965474;28;20129;-71
2023/07/21 08:46:31;;;;;;;11.52;9.88;;;;;;;21.85;58.08;100959.72;4966704;28;20365;-74
2023/07/21 08:49:01;;;;;;;12.27;9.05;;;;;;;22.00;58.08;100956.81;4963449;28;20545;-72
2023/07/21 08:51:28;;;;;;;14.93;7.97;;;;;;;22.05;56.21;100953.75;4963704;28;20090;-72
2023/07/21 08:53:55;;;;;;;8.63;7.72;;;;;;;22.09;55.46;100956.09;4965272;28;20074;-72
2023/07/21 08:56:23;;;;;;;23.15;7.65;;;;;;;22.16;55.70;100956.47;4965247;28;20073;-72
2023/07/21 08:58:51;;;;;;;8.38;7.47;;;;;;;22.25;54.01;100957.59;4967405;28;20058;-72
2023/07/21 09:01:18;;;;;;;8.27;6.47;;;;;;;22.25;54.52;100950.38;4964924;28;20039;-72
2023/07/21 09:03:47;;;;;;;7.43;6.72;;;;;;;22.24;53.27;100950.50;4962020;28;20050;-72
2023/07/21 09:06:15;;;;;;;10.23;6.22;;;;;;;22.16;53.19;100954.66;4966615;28;20481;-71
2023/07/21 09:08:48;;;;;;;26.23;7.57;;;;;;;22.12;53.54;100957.72;4966378;28;20121;-71
2023/07/21 09:11:16;;;;;;;;;;;;;;;22.17;53.34;100961.75;4965989;28;20650;-71
2023/07/21 09:13:54;;;;;;;9.65;6.30;;;;;;;22.27;52.44;100963.72;4965866;28;19929;-72
2023/07/21 09:16:21;;;;;;;7.80;6.05;;;;;;;22.40;52.47;100950.16;4965244;28;20078;-72
2023/07/21 09:18:48;;;;;;;8.07;4.53;;;;;;;22.55;53.26;100948.13;4975523;28;20569;-72
2023/07/21 09:21:23;;;;;;;11.50;7.70;;;;;;;22.72;51.13;100946.78;4963876;28;20047;-72
2023/07/21 09:23:51;;;;;;;7.97;6.82;;;;;;;22.70;49.65;100954.94;4965167;28;20042;-72
2023/07/21 09:26:23;;;;;;;8.80;7.60;;;;;;;22.63;50.19;100956.44;4964669;28;20043;-70
2023/07/21 09:28:51;;;;;;;10.10;7.90;;;;;;;22.58;52.49;100950.59;4964480;28;20132;-70
2023/07/21 09:31:37;;;;;;;13.48;9.43;;;;;;;22.56;52.24;100953.38;4964214;28;20075;-71
2023/07/21 09:34:06;;;;;;;12.50;10.20;;;;;;;22.42;53.03;100950.94;4965564;28;20051;-70
2023/07/21 09:36:34;;;;;;;16.55;10.43;;;;;;;22.24;53.16;100947.84;4964552;28;20049;-69
2023/07/21 09:39:04;;;;;;;16.58;9.07;;;;;;;22.11;53.47;100947.94;4961541;28;20054;-69
2023/07/21 09:41:34;;;;;;;9.15;7.95;;;;;;;22.00;52.19;100954.13;4965948;28;20062;-69
2023/07/21 09:44:02;;;;;;;14.43;8.75;;;;;;;21.92;52.62;100960.09;4963865;28;20500;-69
2023/07/21 09:46:30;;;;;;;9.18;8.27;;;;;;;21.91;51.79;100954.81;4979340;28;20129;-69
2023/07/21 09:48:58;;;;;;;10.85;8.05;;;;;;;21.90;52.43;100953.13;4963494;28;20046;-70
2023/07/21 09:51:29;;;;;;;8.73;7.60;;;;;;;21.96;51.89;100944.63;4964523;28;20047;-70
2023/07/21 09:54:02;;;;;;;9.43;7.35;;;;;;;22.03;51.79;100952.06;4966678;28;20058;-70
2023/07/21 09:56:40;;;;;;;10.60;7.53;;;;;;;22.10;51.69;100948.91;4970371;28;20054;-70
2023/07/21 09:59:10;;;;;;;9.98;6.93;;;;;;;22.27;52.02;100945.75;4976753;28;20046;-69
2023/07/21 10:01:39;;;;;;;12.77;7.72;;;;;;;22.42;51.98;100942.88;4965058;28;20047;-69
2023/07/21 10:04:09;;;;;;;11.65;7.43;;;;;;;22.57;52.42;100938.97;4968929;28;20781;-70
2023/07/21 10:06:37;;;;;;;10.43;7.60;;;;;;;22.52;51.60;100938.50;4966382;28;20272;-70
2023/07/21 10:09:09;;;;;;;9.90;6.85;;;;;;;22.63;50.04;100943.88;4967949;28;20090;-69
2023/07/21 10:11:36;;;;;;;10.10;6.63;;;;;;;22.59;50.18;100941.53;4968304;28;20102;-69
2023/07/21 10:14:03;;;;;;;6.82;5.63;;;;;;;22.67;50.05;100932.84;4966649;28;20286;-70
2023/07/21 10:16:30;;;;;;;9.63;4.95;;;;;;;22.75;50.85;100942.03;4968194;28;20159;-69
2023/07/21 10:19:03;;;;;;;4.72;3.80;;;;;;;22.95;50.94;100935.00;4967513;28;20054;-68
2023/07/21 10:21:46;;;;;;;8.23;4.25;;;;;;;23.13;47.72;100937.19;4969823;28;20362;-70
2023/07/21 10:24:26;;;;;;;9.68;4.47;;;;;;;23.17;46.81;100927.88;4974228;28;20058;-69
2023/07/21 10:27:05;;;;;;;14.88;4.80;;;;;;;23.30;46.69;100926.91;4969210;28;20066;-69
2023/07/21 10:29:33;;;;;;;9.85;4.68;;;;;;;23.42;46.95;100923.19;4970471;28;20411;-69
2023/07/21 10:32:04;;;;;;;5.75;4.28;;;;;;;23.52;46.68;100916.06;4971101;28;20039;-70
2023/07/21 10:34:34;;;;;;;6.20;4.68;;;;;;;23.66;46.95;100917.59;4969398;28;20573;-70
2023/07/21 10:37:06;;;;;;;7.00;4.70;;;;;;;23.78;46.09;100929.13;4973146;28;20055;-69
2023/07/21 10:39:42;;;;;;;7.72;5.63;;;;;;;23.75;47.23;100925.84;4969157;28;20043;-69
2023/07/21 10:42:11;;;;;;;8.20;5.90;;;;;;;23.93;46.02;100918.88;4970074;28;20050;-69
2023/07/21 10:44:43;;;;;;;10.98;5.13;;;;;;;24.10;44.86;100922.84;4971379;28;20043;-68
2023/07/21 10:47:20;;;;;;;6.00;4.85;;;;;;;24.23;43.32;100913.72;4969020;28;20074;-69
2023/07/21 10:49:49;;;;;;;6.20;4.65;;;;;;;24.20;43.06;100917.53;4971577;28;20304;-69
2023/07/21 10:52:16;;;;;;;6.13;4.68;;;;;;;24.01;43.66;100912.88;4966415;28;20515;-69
2023/07/21 10:54:43;;;;;;;7.50;4.60;;;;;;;23.87;44.10;100919.44;4968328;28;20045;-69
2023/07/21 10:57:11;;;;;;;4.85;3.97;;;;;;;23.78;44.30;100915.66;4968340;28;20053;-69
2023/07/21 10:59:39;;;;;;;6.15;4.32;;;;;;;23.94;44.85;100915.22;4968668;28;20035;-70
2023/07/21 11:02:07;;;;;;;8.00;4.10;;;;;;;23.94;44.34;100912.53;4968142;28;20039;-69
2023/07/21 11:04:40;;;;;;;6.28;3.65;;;;;;;24.24;43.97;100910.88;4970656;28;20133;-69
2023/07/21 11:07:08;;;;;;;5.78;3.50;;;;;;;24.54;44.11;100917.25;4965087;28;20058;-70
2023/07/21 11:09:43;;;;;;;4.38;3.00;;;;;;;24.89;41.66;100907.00;4966941;28;20050;-71
2023/07/21 11:12:10;;;;;;;7.57;2.90;;;;;;;25.01;41.05;100905.91;4965005;28;20571;-69
2023/07/21 11:14:39;;;;;;;5.90;3.83;;;;;;;25.06;40.88;100903.66;4967713;28;20129;-70
2023/07/21 11:17:06;;;;;;;4.15;3.30;;;;;;;25.11;42.27;100901.38;4968153;28;20039;-69
2023/07/21 11:19:34;;;;;;;5.53;3.58;;;;;;;25.19;41.85;100899.81;4967931;28;20491;-70
2023/07/21 11:22:04;;;;;;;6.88;3.88;;;;;;;25.26;40.50;100906.38;4967250;28;20514;-70
2023/07/21 11:24:32;;;;;;;4.00;3.40;;;;;;;25.30;40.83;100906.94;4966955;28;20096;-70
2023/07/21 11:27:09;;;;;;;7.32;3.50;;;;;;;25.04;41.46;100896.69;4966737;28;20035;-70
2023/07/21 11:29:42;;;;;;;4.18;2.88;;;;;;;24.80;41.68;100895.25;4966099;28;20198;-70